createdAt,value
2023-03-14T00:01:17.225Z,100.00
2023-03-14T00:03:45.436Z,100.00
2023-03-14T00:06:14.972Z,100.00
2023-03-14T00:08:44.601Z,100.00
2023-03-14T00:11:20.198Z,100.00
2023-03-14T00:13:50.028Z,100.00
2023-03-14T00:16:19.017Z,100.00
2023-03-14T00:18:47.737Z,100.00
2023-03-14T00:21:16.539Z,100.00
2023-03-14T00:23:45.574Z,100.00
2023-03-14T00:26:17.773Z,100.00
2023-03-14T00:28:46.485Z,100.00
2023-03-14T00:31:16.853Z,100.00
2023-03-14T00:33:46.434Z,100.00
2023-03-14T00:36:17.639Z,100.00
2023-03-14T00:38:48.889Z,100.00
2023-03-14T00:41:19.950Z,100.00
2023-03-14T00:43:49.483Z,100.00
2023-03-14T00:46:18.176Z,100.00
2023-03-14T00:48:47.360Z,100.00
2023-03-14T00:51:16.547Z,100.00
2023-03-14T00:53:46.452Z,100.00
2023-03-14T00:56:15.303Z,100.00
2023-03-14T00:58:43.774Z,100.00
2023-03-14T01:01:19.326Z,100.00
2023-03-14T01:03:48.298Z,100.00
2023-03-14T01:06:21.422Z,100.00
2023-03-14T01:08:50.603Z,100.00
2023-03-14T01:11:30.143Z,100.00
2023-03-14T01:14:00.251Z,100.00
2023-03-14T01:16:33.687Z,100.00
2023-03-14T01:19:03.411Z,100.00
2023-03-14T01:21:34.235Z,100.00
2023-03-14T01:24:04.971Z,100.00
2023-03-14T01:26:35.880Z,100.00
2023-03-14T01:29:05.627Z,100.00
2023-03-14T01:31:36.010Z,100.00
2023-03-14T01:34:04.393Z,100.00
2023-03-14T01:36:33.208Z,100.00
2023-03-14T01:39:04.179Z,100.00
2023-03-14T01:41:32.312Z,100.00
2023-03-14T01:44:00.909Z,100.00
2023-03-14T01:46:36.005Z,100.00
2023-03-14T01:49:14.331Z,100.00
2023-03-14T01:52:04.996Z,100.00
2023-03-14T01:54:43.068Z,100.00
2023-03-14T01:57:20.302Z,100.00
2023-03-14T01:59:55.601Z,100.00
2023-03-14T02:02:24.980Z,100.00
2023-03-14T02:04:55.761Z,100.00
2023-03-14T02:07:32.366Z,100.00
2023-03-14T02:10:11.013Z,100.00
2023-03-14T02:12:40.375Z,100.00
2023-03-14T02:15:33.424Z,100.00
2023-03-14T02:18:07.639Z,100.00
2023-03-14T02:21:05.655Z,100.00
2023-03-14T02:23:59.632Z,100.00
2023-03-14T02:26:43.257Z,100.00
2023-03-14T02:29:11.918Z,100.00
2023-03-14T02:31:41.228Z,100.00
2023-03-14T02:34:09.342Z,100.00
2023-03-14T02:36:37.498Z,100.00
2023-03-14T02:39:31.642Z,100.00
2023-03-14T02:42:00.295Z,100.00
2023-03-14T02:44:28.986Z,100.00
2023-03-14T02:46:57.467Z,100.00
2023-03-14T02:49:29.580Z,100.00
2023-03-14T02:51:59.398Z,100.00
2023-03-14T02:54:27.573Z,100.00
2023-03-14T02:56:55.850Z,100.00
2023-03-14T02:59:24.057Z,100.00
2023-03-14T03:02:02.028Z,100.00
2023-03-14T03:04:30.233Z,100.00
2023-03-14T03:06:58.230Z,100.00
2023-03-14T03:09:26.472Z,100.00
2023-03-14T03:11:54.687Z,100.00
2023-03-14T03:14:24.490Z,100.00
2023-03-14T03:16:52.695Z,100.00
2023-03-14T03:19:20.854Z,100.00
2023-03-14T03:21:49.687Z,100.00
2023-03-14T03:24:17.780Z,100.00
2023-03-14T03:26:46.023Z,100.00
2023-03-14T03:29:14.388Z,100.00
2023-03-14T03:31:42.969Z,100.00
2023-03-14T03:34:11.437Z,100.00
2023-03-14T03:36:41.083Z,100.00
2023-03-14T03:39:09.228Z,100.00
2023-03-14T03:41:37.224Z,100.00
2023-03-14T03:44:06.958Z,100.00
2023-03-14T03:46:35.211Z,100.00
2023-03-14T03:49:03.379Z,100.00
2023-03-14T03:51:31.607Z,100.00
2023-03-14T03:53:59.909Z,100.00
2023-03-14T03:56:32.738Z,100.00
2023-03-14T03:59:01.865Z,100.00
2023-03-14T04:01:30.128Z,100.00
2023-03-14T04:04:01.736Z,100.00
2023-03-14T04:06:31.783Z,100.00
2023-03-14T04:09:01.718Z,100.00
2023-03-14T04:11:50.787Z,100.00
2023-03-14T04:14:22.009Z,100.00
2023-03-14T04:16:56.280Z,100.00
2023-03-14T04:19:24.583Z,100.00
2023-03-14T04:21:54.791Z,100.00
2023-03-14T04:24:25.972Z,100.00
2023-03-14T04:26:54.771Z,100.00
2023-03-14T04:29:23.096Z,100.00
2023-03-14T04:31:51.164Z,100.00
2023-03-14T04:34:19.446Z,100.00
2023-03-14T04:36:52.831Z,100.00
2023-03-14T04:39:26.609Z,100.00
2023-03-14T04:42:13.094Z,100.00
2023-03-14T04:44:41.416Z,100.00
2023-03-14T04:47:10.078Z,100.00
2023-03-14T04:49:39.452Z,100.00
2023-03-14T04:52:09.671Z,100.00
2023-03-14T04:54:38.751Z,100.00
2023-03-14T04:57:06.753Z,100.00
2023-03-14T04:59:37.543Z,100.00
2023-03-14T05:02:19.237Z,100.00
2023-03-14T05:05:03.650Z,100.00
2023-03-14T05:07:47.125Z,100.00
2023-03-14T05:10:40.621Z,100.00
2023-03-14T05:13:32.670Z,100.00
2023-03-14T05:16:36.312Z,100.00
2023-03-14T05:19:30.645Z,100.00
2023-03-14T05:22:27.223Z,100.00
2023-03-14T05:25:08.729Z,100.00
2023-03-14T05:27:59.897Z,100.00
2023-03-14T05:30:38.181Z,100.00
2023-03-14T05:33:27.034Z,100.00
2023-03-14T05:36:24.520Z,100.00
2023-03-14T05:39:19.824Z,100.00
2023-03-14T05:41:52.189Z,100.00
2023-03-14T05:44:20.502Z,100.00
2023-03-14T05:47:12.088Z,100.00
2023-03-14T05:50:02.152Z,100.00
2023-03-14T05:52:33.531Z,100.00
2023-03-14T05:55:22.058Z,100.00
2023-03-14T05:58:04.789Z,100.00
2023-03-14T06:00:46.308Z,100.00
2023-03-14T06:03:29.862Z,100.00
2023-03-14T06:05:58.772Z,100.00
2023-03-14T06:08:27.946Z,100.00
2023-03-14T06:10:58.601Z,100.00
2023-03-14T06:13:30.840Z,100.00
2023-03-14T06:15:59.180Z,100.00
2023-03-14T06:18:27.793Z,100.00
2023-03-14T06:20:57.309Z,100.00
2023-03-14T06:23:28.235Z,100.00
2023-03-14T06:25:57.043Z,100.00
2023-03-14T06:28:26.175Z,100.00
2023-03-14T06:30:55.983Z,100.00
2023-03-14T06:33:24.534Z,100.00
2023-03-14T06:35:53.214Z,100.00
2023-03-14T06:38:22.211Z,100.00
2023-03-14T06:40:52.629Z,100.00
2023-03-14T06:43:30.925Z,100.00
2023-03-14T06:45:59.270Z,100.00
2023-03-14T06:48:27.742Z,100.00
2023-03-14T06:50:56.505Z,100.00
2023-03-14T06:53:25.201Z,100.00
2023-03-14T06:55:53.738Z,100.00
2023-03-14T06:58:21.973Z,100.00
2023-03-14T07:00:50.433Z,100.00
2023-03-14T07:03:23.731Z,100.00
2023-03-14T07:05:53.959Z,100.00
2023-03-14T07:08:22.529Z,100.00
2023-03-14T07:10:50.957Z,100.00
2023-03-14T07:13:20.203Z,100.00
2023-03-14T07:15:56.958Z,100.00
2023-03-14T07:18:26.018Z,100.00
2023-03-14T07:20:54.702Z,100.00
2023-03-14T07:23:23.235Z,100.00
2023-03-14T07:25:55.074Z,100.00
2023-03-14T07:28:25.475Z,100.00
2023-03-14T07:30:59.095Z,100.00
2023-03-14T07:33:32.425Z,100.00
2023-03-14T07:36:02.158Z,100.00
2023-03-14T07:38:30.664Z,100.00
2023-03-14T07:41:25.305Z,100.00
2023-03-14T07:44:12.713Z,94.22
2023-03-14T07:46:41.009Z,84.03
2023-03-14T07:49:09.466Z,88.91
2023-03-14T07:51:37.806Z,87.11
2023-03-14T07:54:06.136Z,94.11
2023-03-14T07:56:34.447Z,98.77
2023-03-14T07:59:03.092Z,90.38
2023-03-14T08:01:31.564Z,84.27
2023-03-14T08:04:00.270Z,89.71
2023-03-14T08:06:28.660Z,96.40
2023-03-14T08:08:57.130Z,96.25
2023-03-14T08:11:25.680Z,93.79
2023-03-14T08:13:54.464Z,92.31
2023-03-14T08:16:23.398Z,90.07
2023-03-14T08:18:51.818Z,88.07
2023-03-14T08:21:20.691Z,89.14
2023-03-14T08:23:49.556Z,95.11
2023-03-14T08:26:17.884Z,95.85
2023-03-14T08:28:46.185Z,94.09
2023-03-14T08:31:14.596Z,94.26
2023-03-14T08:33:43.650Z,96.24
2023-03-14T08:36:12.540Z,97.03
2023-03-14T08:38:43.711Z,97.04
2023-03-14T08:41:12.895Z,99.35
2023-03-14T08:43:41.199Z,99.15
2023-03-14T08:46:09.859Z,99.27
2023-03-14T08:48:38.686Z,97.10
2023-03-14T08:51:13.841Z,94.75
2023-03-14T08:53:43.280Z,89.66
2023-03-14T08:56:11.980Z,89.86
2023-03-14T08:58:40.568Z,89.25
2023-03-14T09:01:10.674Z,90.04
2023-03-14T09:03:39.964Z,89.97
2023-03-14T09:06:11.111Z,86.92
2023-03-14T09:08:39.909Z,87.13
2023-03-14T09:11:10.287Z,89.71
2023-03-14T09:13:38.988Z,94.25
2023-03-14T09:16:08.565Z,94.00
2023-03-14T09:18:37.645Z,93.25
2023-03-14T09:21:06.468Z,94.25
2023-03-14T09:23:35.732Z,95.40
2023-03-14T09:26:04.676Z,96.50
2023-03-14T09:28:33.329Z,95.67
2023-03-14T09:31:12.613Z,93.02
2023-03-14T09:33:41.208Z,93.33
2023-03-14T09:36:10.335Z,91.56
2023-03-14T09:38:38.926Z,92.43
2023-03-14T09:41:27.379Z,89.52
2023-03-14T09:44:06.192Z,89.22
2023-03-14T09:46:38.174Z,87.56
2023-03-14T09:49:36.951Z,89.88
2023-03-14T09:52:29.896Z,91.75
2023-03-14T09:55:00.682Z,94.88
2023-03-14T09:57:29.308Z,93.05
2023-03-14T10:00:08.296Z,91.91
2023-03-14T10:02:37.387Z,93.28
2023-03-14T10:05:16.185Z,94.91
2023-03-14T10:07:44.881Z,97.77
2023-03-14T10:10:22.112Z,96.13
2023-03-14T10:13:18.571Z,91.25
2023-03-14T10:15:55.290Z,85.05
2023-03-14T10:18:26.870Z,88.66
2023-03-14T10:21:11.048Z,81.83
2023-03-14T10:23:40.318Z,76.68
2023-03-14T10:26:15.490Z,78.38
2023-03-14T10:28:54.408Z,72.71
2023-03-14T10:31:28.762Z,73.93
2023-03-14T10:34:04.192Z,77.54
2023-03-14T10:36:36.062Z,68.36
2023-03-14T10:39:27.381Z,64.90
2023-03-14T10:42:05.266Z,64.52
2023-03-14T10:44:36.510Z,62.42
2023-03-14T10:47:06.079Z,54.89
2023-03-14T10:49:39.266Z,51.66
2023-03-14T10:52:31.239Z,48.88
2023-03-14T10:55:14.718Z,47.85
2023-03-14T10:57:44.628Z,48.01
2023-03-14T11:00:22.078Z,48.74
2023-03-14T11:03:14.807Z,47.71
2023-03-14T11:06:19.739Z,48.01
2023-03-14T11:08:57.769Z,45.89
2023-03-14T11:11:30.867Z,46.93
2023-03-14T11:14:17.355Z,44.96
2023-03-14T11:16:48.907Z,45.55
2023-03-14T11:19:40.641Z,43.94
2023-03-14T11:23:00.946Z,43.17
2023-03-14T11:25:32.892Z,41.75
2023-03-14T11:28:05.042Z,41.32
2023-03-14T11:30:52.297Z,42.76
2023-03-14T11:33:25.290Z,41.81
2023-03-14T11:36:11.797Z,41.54
2023-03-14T11:38:58.121Z,41.55
2023-03-14T11:41:35.023Z,42.18
2023-03-14T11:44:18.430Z,40.74
2023-03-14T11:47:25.777Z,38.92
2023-03-14T11:50:19.521Z,37.60
2023-03-14T11:53:15.620Z,37.62
2023-03-14T11:55:46.123Z,36.90
2023-03-14T11:58:30.422Z,35.21
2023-03-14T12:01:08.162Z,34.88
2023-03-14T12:04:03.077Z,36.07
2023-03-14T12:06:51.312Z,35.77
2023-03-14T12:09:22.680Z,35.69
2023-03-14T12:12:00.464Z,35.38
2023-03-14T12:14:32.989Z,36.31
2023-03-14T12:17:10.621Z,35.38
2023-03-14T12:19:41.338Z,34.28
2023-03-14T12:22:27.459Z,35.30
2023-03-14T12:25:05.801Z,35.73
2023-03-14T12:27:57.421Z,35.39
2023-03-14T12:30:34.529Z,35.74
2023-03-14T12:33:18.262Z,35.39
2023-03-14T12:35:54.148Z,35.08
2023-03-14T12:38:38.144Z,35.32
2023-03-14T12:41:21.685Z,33.93
2023-03-14T12:43:51.187Z,32.86
2023-03-14T12:46:19.600Z,32.58
2023-03-14T12:49:08.730Z,32.27
2023-03-14T12:51:39.833Z,32.20
2023-03-14T12:54:29.854Z,31.63
2023-03-14T12:57:22.620Z,30.84
2023-03-14T12:59:58.500Z,30.49
2023-03-14T13:02:41.365Z,30.47
2023-03-14T13:05:26.086Z,30.42
2023-03-14T13:08:01.353Z,29.85
2023-03-14T13:10:38.141Z,29.68
2023-03-14T13:13:28.934Z,29.61
2023-03-14T13:16:01.613Z,29.41
2023-03-14T13:18:45.076Z,29.55
2023-03-14T13:21:25.623Z,30.10
2023-03-14T13:24:05.087Z,29.37
2023-03-14T13:26:37.720Z,29.11
2023-03-14T13:29:32.696Z,28.79
2023-03-14T13:32:14.330Z,28.40
2023-03-14T13:34:43.225Z,27.99
2023-03-14T13:37:21.648Z,27.99
2023-03-14T13:39:59.772Z,28.83
2023-03-14T13:42:30.962Z,29.50
2023-03-14T13:44:59.480Z,29.62
2023-03-14T13:47:28.633Z,29.75
2023-03-14T13:49:57.123Z,29.33
2023-03-14T13:52:39.605Z,29.22
2023-03-14T13:55:17.952Z,29.39
2023-03-14T13:57:49.121Z,29.40
2023-03-14T14:00:23.315Z,29.37
2023-03-14T14:02:52.834Z,29.51
2023-03-14T14:05:21.708Z,29.99
2023-03-14T14:07:51.489Z,29.99
2023-03-14T14:10:21.691Z,29.96
2023-03-14T14:13:04.359Z,30.17
2023-03-14T14:15:41.090Z,29.79
2023-03-14T14:18:16.673Z,29.51
2023-03-14T14:20:47.786Z,29.39
2023-03-14T14:23:26.469Z,29.22
2023-03-14T14:25:55.703Z,29.32
2023-03-14T14:28:36.255Z,29.36
2023-03-14T14:31:16.963Z,29.78
2023-03-14T14:33:55.466Z,29.63
2023-03-14T14:36:28.539Z,29.96
2023-03-14T14:39:11.300Z,30.32
2023-03-14T14:41:43.086Z,30.16
2023-03-14T14:44:14.097Z,29.89
2023-03-14T14:46:43.732Z,30.04
2023-03-14T14:49:15.897Z,29.91
2023-03-14T14:51:49.155Z,30.24
2023-03-14T14:54:20.654Z,30.50
2023-03-14T14:56:54.499Z,30.53
2023-03-14T14:59:28.153Z,30.71
2023-03-14T15:01:59.151Z,30.82
2023-03-14T15:04:30.967Z,31.08
2023-03-14T15:06:59.879Z,31.35
2023-03-14T15:09:28.356Z,31.36
2023-03-14T15:11:57.032Z,31.73
2023-03-14T15:14:25.540Z,31.75
2023-03-14T15:16:53.918Z,32.22
2023-03-14T15:19:26.655Z,32.58
2023-03-14T15:21:55.144Z,32.99
2023-03-14T15:24:24.091Z,33.36
2023-03-14T15:26:52.934Z,33.72
2023-03-14T15:29:21.466Z,34.11
2023-03-14T15:31:49.804Z,34.34
2023-03-14T15:34:18.037Z,34.90
2023-03-14T15:36:46.484Z,34.99
2023-03-14T15:39:14.878Z,35.23
2023-03-14T15:41:43.555Z,35.73
2023-03-14T15:44:11.903Z,36.11
2023-03-14T15:46:40.270Z,36.39
2023-03-14T15:49:10.245Z,36.60
2023-03-14T15:51:38.581Z,37.14
2023-03-14T15:54:06.995Z,37.53
2023-03-14T15:56:35.567Z,37.97
2023-03-14T15:59:04.014Z,38.29
2023-03-14T16:01:32.925Z,38.58
2023-03-14T16:04:06.077Z,38.97
2023-03-14T16:06:36.534Z,39.36
2023-03-14T16:09:05.501Z,39.76
2023-03-14T16:11:34.191Z,40.13
2023-03-14T16:14:05.925Z,40.49
2023-03-14T16:16:34.485Z,40.66
2023-03-14T16:19:03.256Z,41.02
2023-03-14T16:21:31.556Z,41.33
2023-03-14T16:24:01.131Z,41.73
2023-03-14T16:26:29.692Z,42.36
2023-03-14T16:28:58.072Z,42.72
2023-03-14T16:31:26.692Z,43.07
2023-03-14T16:33:54.986Z,43.35
2023-03-14T16:36:23.417Z,43.49
2023-03-14T16:38:52.996Z,43.73
2023-03-14T16:41:22.055Z,43.71
2023-03-14T16:43:54.524Z,43.65
2023-03-14T16:46:23.282Z,43.53
2023-03-14T16:48:51.900Z,43.20
2023-03-14T16:51:21.036Z,43.08
2023-03-14T16:53:50.509Z,43.38
2023-03-14T16:56:19.021Z,43.46
2023-03-14T16:58:49.127Z,43.77
2023-03-14T17:01:19.250Z,44.02
2023-03-14T17:03:52.399Z,44.33
2023-03-14T17:06:24.975Z,44.38
2023-03-14T17:08:56.051Z,44.59
2023-03-14T17:11:25.036Z,44.21
2023-03-14T17:13:53.611Z,44.49
2023-03-14T17:16:23.721Z,44.85
2023-03-14T17:18:53.419Z,44.98
2023-03-14T17:21:22.501Z,45.55
2023-03-14T17:23:51.742Z,45.84
2023-03-14T17:26:20.260Z,46.19
2023-03-14T17:28:48.820Z,46.55
2023-03-14T17:31:19.606Z,46.68
2023-03-14T17:33:47.948Z,46.92
2023-03-14T17:36:18.177Z,46.94
2023-03-14T17:38:46.728Z,47.72
2023-03-14T17:41:16.013Z,48.27
2023-03-14T17:43:46.334Z,48.67
2023-03-14T17:46:15.963Z,49.01
2023-03-14T17:48:46.345Z,49.09
2023-03-14T17:51:16.135Z,48.92
2023-03-14T17:53:44.585Z,49.19
2023-03-14T17:56:13.293Z,49.08
2023-03-14T17:58:44.561Z,49.29
2023-03-14T18:01:18.771Z,49.55
2023-03-14T18:03:47.346Z,48.99
2023-03-14T18:06:17.878Z,49.21
2023-03-14T18:08:47.539Z,50.23
2023-03-14T18:11:17.504Z,50.82
2023-03-14T18:13:45.977Z,50.58
2023-03-14T18:16:15.189Z,51.05
2023-03-14T18:18:48.500Z,51.82
2023-03-14T18:21:18.946Z,53.52
2023-03-14T18:23:48.878Z,54.35
2023-03-14T18:26:18.155Z,55.41
2023-03-14T18:28:47.729Z,56.61
2023-03-14T18:31:19.085Z,59.42
2023-03-14T18:33:50.221Z,61.01
2023-03-14T18:36:19.662Z,61.07
2023-03-14T18:38:50.829Z,61.49
2023-03-14T18:41:23.594Z,61.18
2023-03-14T18:43:53.953Z,61.80
2023-03-14T18:46:23.278Z,62.05
2023-03-14T18:48:56.803Z,62.62
2023-03-14T18:51:28.576Z,64.57
2023-03-14T18:54:10.294Z,69.60
2023-03-14T18:56:41.732Z,74.42
2023-03-14T18:59:14.240Z,74.90
2023-03-14T19:01:43.718Z,77.84
2023-03-14T19:04:12.253Z,75.70
2023-03-14T19:06:41.931Z,73.50
2023-03-14T19:09:15.393Z,73.30
2023-03-14T19:11:43.835Z,72.97
2023-03-14T19:14:16.141Z,74.16
2023-03-14T19:16:44.971Z,82.76
2023-03-14T19:19:13.789Z,87.05
2023-03-14T19:21:41.999Z,85.44
2023-03-14T19:24:16.831Z,84.70
2023-03-14T19:26:45.255Z,83.59
2023-03-14T19:29:13.618Z,82.24
2023-03-14T19:31:41.877Z,82.70
2023-03-14T19:34:09.993Z,85.03
2023-03-14T19:36:38.721Z,85.25
2023-03-14T19:39:07.330Z,92.41
2023-03-14T19:41:36.116Z,94.12
2023-03-14T19:44:04.170Z,96.50
2023-03-14T19:46:33.535Z,98.69
2023-03-14T19:49:02.285Z,99.82
2023-03-14T19:51:33.036Z,100.00
2023-03-14T19:54:03.610Z,100.00
2023-03-14T19:56:33.094Z,100.00
2023-03-14T19:59:04.814Z,99.98
2023-03-14T20:01:35.000Z,100.00
2023-03-14T20:04:04.754Z,100.00
2023-03-14T20:06:34.704Z,100.00
2023-03-14T20:09:05.516Z,100.00
2023-03-14T20:11:35.538Z,100.00
2023-03-14T20:14:03.386Z,100.00
2023-03-14T20:16:36.147Z,100.00
2023-03-14T20:19:07.219Z,100.00
2023-03-14T20:21:36.068Z,100.00
2023-03-14T20:24:07.287Z,100.00
2023-03-14T20:26:38.697Z,100.00
2023-03-14T20:29:07.219Z,100.00
2023-03-14T20:31:38.134Z,100.00
2023-03-14T20:34:06.457Z,100.00
2023-03-14T20:36:38.314Z,100.00
2023-03-14T20:39:06.854Z,100.00
2023-03-14T20:41:42.114Z,100.00
2023-03-14T20:44:12.343Z,100.00
2023-03-14T20:46:41.060Z,100.00
2023-03-14T20:49:09.902Z,100.00
2023-03-14T20:51:37.821Z,100.00
2023-03-14T20:54:07.937Z,100.00
2023-03-14T20:56:35.893Z,100.00
2023-03-14T20:59:03.847Z,100.00
2023-03-14T21:04:21.337Z,100.00
2023-03-14T21:06:49.288Z,100.00
2023-03-14T21:09:17.169Z,100.00
2023-03-14T21:11:47.326Z,100.00
2023-03-14T21:14:18.152Z,100.00
2023-03-14T21:16:46.572Z,100.00
2023-03-14T21:19:15.152Z,100.00
2023-03-14T21:21:43.067Z,100.00
2023-03-14T21:24:10.912Z,100.00
2023-03-14T21:26:39.985Z,100.00
2023-03-14T21:29:07.941Z,100.00
2023-03-14T21:31:36.093Z,100.00
2023-03-14T21:34:04.091Z,100.00
2023-03-14T21:36:32.082Z,100.00
2023-03-14T21:39:00.037Z,100.00
2023-03-14T21:41:27.863Z,100.00
2023-03-14T21:43:55.894Z,100.00
2023-03-14T21:46:26.074Z,100.00
2023-03-14T21:48:54.301Z,100.00
2023-03-14T21:51:22.210Z,100.00
2023-03-14T21:53:50.076Z,100.00
2023-03-14T21:56:17.910Z,100.00
2023-03-14T21:58:47.043Z,100.00
2023-03-14T22:01:14.893Z,100.00
2023-03-14T22:03:46.009Z,100.00
2023-03-14T22:06:13.992Z,100.00
2023-03-14T22:08:42.018Z,100.00
2023-03-14T22:11:10.361Z,100.00
2023-03-14T22:13:38.415Z,100.00
2023-03-14T22:16:07.233Z,100.00
2023-03-14T22:18:35.680Z,100.00
2023-03-14T22:21:03.718Z,100.00
2023-03-14T22:23:31.569Z,100.00
2023-03-14T22:25:59.424Z,100.00
2023-03-14T22:28:27.373Z,100.00
2023-03-14T22:30:55.259Z,100.00
2023-03-14T22:33:23.406Z,100.00
2023-03-14T22:35:53.170Z,100.00
2023-03-14T22:38:21.298Z,100.00
2023-03-14T22:40:49.200Z,100.00
2023-03-14T22:43:17.597Z,100.00
2023-03-14T22:45:45.941Z,100.00
2023-03-14T22:48:15.340Z,100.00
2023-03-14T22:50:43.713Z,100.00
2023-03-14T22:53:11.981Z,100.00
2023-03-14T22:55:40.226Z,100.00
2023-03-14T22:58:08.521Z,100.00
2023-03-14T23:00:36.938Z,100.00
2023-03-14T23:03:04.923Z,100.00
2023-03-14T23:05:33.769Z,100.00
2023-03-14T23:08:01.588Z,100.00
2023-03-14T23:10:29.437Z,100.00
2023-03-14T23:12:57.744Z,100.00
2023-03-14T23:15:26.236Z,100.00
2023-03-14T23:17:54.303Z,100.00
2023-03-14T23:20:22.405Z,100.00
2023-03-14T23:22:51.076Z,100.00
2023-03-14T23:25:18.925Z,100.00
2023-03-14T23:27:46.802Z,100.00
2023-03-14T23:30:16.955Z,100.00
2023-03-14T23:32:44.891Z,100.00
2023-03-14T23:35:14.459Z,100.00
2023-03-14T23:37:42.443Z,100.00
2023-03-14T23:40:11.543Z,100.00
2023-03-14T23:42:39.851Z,100.00
2023-03-14T23:45:08.130Z,100.00
2023-03-14T23:47:36.086Z,100.00
2023-03-14T23:50:04.180Z,100.00
2023-03-14T23:52:32.030Z,100.00
2023-03-14T23:54:59.941Z,100.00
2023-03-14T23:57:27.754Z,100.00
2023-03-14T23:59:55.610Z,100.00
